Time;durP1;ratioP1;P1;durP2;ratioP2;P2;SDS_P1;SDS_P2;PMS_P1;PMS_P2;Temp;Humidity;BMP_temperature;BMP_pressure;BME280_temperature;BME280_humidity;BME280_pressure;Samples;Min_cycle;Max_cycle;Signal;HPM_P1;HPM_P2
2021/06/21 00:00:03;;;;;;;11.75;10.45;;;26.90;74.10;;;;;;5135713;27;20060;-68
2021/06/21 00:02:47;;;;;;;11.65;10.27;;;26.90;75.40;;;;;;5108438;27;20094;-68
2021/06/21 00:05:31;;;;;;;13.75;10.25;;;26.80;75.90;;;;;;5108547;28;20058;-68
2021/06/21 00:08:16;;;;;;;15.80;10.57;;;26.80;75.70;;;;;;5127263;27;20042;-68
2021/06/21 00:11:00;;;;;;;;;;;26.70;76.20;;;;;;5095091;28;20051;-68
2021/06/21 00:13:45;;;;;;;15.57;10.10;;;26.70;77.00;;;;;;5113077;28;20328;-68
2021/06/21 00:16:28;;;;;;;10.98;9.57;;;26.50;77.70;;;;;;5112962;28;20400;-69
2021/06/21 00:19:13;;;;;;;14.93;10.45;;;26.40;78.30;;;;;;5094822;28;20043;-68
2021/06/21 00:21:57;;;;;;;13.32;10.90;;;26.30;79.70;;;;;;5114070;27;20119;-69
2021/06/21 00:24:43;;;;;;;14.63;11.18;;;26.20;80.40;;;;;;5127277;27;20512;-68
2021/06/21 00:27:27;;;;;;;13.32;10.75;;;26.20;80.70;;;;;;5101889;28;20038;-68
2021/06/21 00:30:15;;;;;;;11.50;10.35;;;26.10;81.10;;;;;;5098031;28;20043;-68
2021/06/21 00:33:01;;;;;;;13.95;10.98;;;26.00;82.20;;;;;;5124651;27;20092;-68
2021/06/21 00:35:47;;;;;;;17.48;10.35;;;25.90;83.10;;;;;;5117744;27;20027;-69
2021/06/21 00:38:33;;;;;;;14.65;10.25;;;25.90;83.00;;;;;;5112933;27;20371;-68
2021/06/21 00:41:19;;;;;;;12.57;10.82;;;25.70;84.40;;;;;;5113683;28;20038;-69
2021/06/21 00:44:05;;;;;;;18.48;10.75;;;25.70;84.60;;;;;;5092770;28;20392;-67
2021/06/21 00:46:51;;;;;;;13.00;10.98;;;25.60;84.80;;;;;;5109645;27;20050;-68
2021/06/21 00:49:36;;;;;;;14.43;11.27;;;25.60;85.20;;;;;;5112775;28;20059;-68
2021/06/21 00:52:22;;;;;;;14.00;10.88;;;25.50;85.90;;;;;;5096620;28;20047;-68
2021/06/21 00:55:09;;;;;;;14.95;10.90;;;25.40;85.90;;;;;;5113187;28;20016;-68
2021/06/21 00:57:55;;;;;;;14.32;11.52;;;25.40;86.80;;;;;;5112902;28;20479;-68
2021/06/21 01:00:41;;;;;;;14.45;11.15;;;25.30;87.80;;;;;;5112445;28;20476;-69
2021/06/21 01:03:27;;;;;;;15.80;12.00;;;25.30;87.80;;;;;;5127299;27;20053;-69
2021/06/21 01:06:13;;;;;;;16.58;10.88;;;25.20;88.60;;;;;;5132001;27;20047;-68
2021/06/21 01:08:59;;;;;;;14.57;11.55;;;25.10;89.30;;;;;;5131383;27;20533;-69
2021/06/21 01:11:51;;;;;;;15.35;12.80;;;25.00;89.90;;;;;;5105940;27;20051;-68
2021/06/21 01:14:44;;;;;;;14.05;11.85;;;25.00;90.00;;;;;;5124405;27;20024;-69
2021/06/21 01:17:45;;;;;;;14.35;11.90;;;24.90;90.00;;;;;;5123909;27;20023;-68
2021/06/21 01:21:08;;;;;;;13.35;11.15;;;24.90;90.40;;;;;;5132236;27;20475;-68
2021/06/21 01:24:08;;;;;;;12.48;11.05;;;24.90;90.30;;;;;;5130579;27;20019;-69
2021/06/21 01:27:11;;;;;;;13.15;11.85;;;24.80;90.60;;;;;;5128763;27;20048;-68
2021/06/21 01:30:05;;;;;;;13.55;9.93;;;24.80;90.60;;;;;;5111735;27;20016;-68
2021/06/21 01:32:59;;;;;;;14.07;11.15;;;24.70;90.60;;;;;;5110670;28;20032;-67
2021/06/21 01:35:53;;;;;;;14.15;10.15;;;24.60;91.00;;;;;;5112332;28;20165;-68
2021/06/21 01:38:46;;;;;;;12.77;11.20;;;24.50;91.10;;;;;;5110590;28;20043;-68
2021/06/21 01:41:36;;;;;;;13.05;10.27;;;24.50;91.20;;;;;;5111277;28;20028;-68
2021/06/21 01:44:26;;;;;;;16.42;10.63;;;24.40;91.40;;;;;;5126621;27;20130;-68
2021/06/21 01:47:14;;;;;;;13.07;9.65;;;24.40;91.50;;;;;;5111520;28;20016;-68
2021/06/21 01:50:01;;;;;;;14.23;10.32;;;24.40;91.50;;;;;;5110292;28;20028;-68
2021/06/21 01:53:11;;;;;;;12.10;10.68;;;24.30;91.60;;;;;;5110456;28;20102;-69
2021/06/21 01:56:02;;;;;;;10.43;9.07;;;24.30;91.60;;;;;;5112347;28;20027;-69
2021/06/21 01:58:51;;;;;;;14.70;10.35;;;24.30;91.70;;;;;;5093752;28;20110;-68
2021/06/21 02:01:38;;;;;;;13.77;9.90;;;24.30;91.60;;;;;;5111778;28;20031;-68
2021/06/21 02:04:27;;;;;;;14.50;11.20;;;24.30;91.50;;;;;;5101988;27;20066;-68
2021/06/21 02:07:15;;;;;;;12.40;10.75;;;24.30;91.70;;;;;;5090948;28;20396;-68
2021/06/21 02:10:04;;;;;;;14.35;10.75;;;24.30;91.50;;;;;;5117726;27;20043;-68
2021/06/21 02:12:51;;;;;;;13.95;10.38;;;24.30;91.50;;;;;;5131709;27;20130;-68
2021/06/21 02:15:37;;;;;;;15.68;11.18;;;24.30;91.60;;;;;;5110793;27;20083;-68
2021/06/21 02:18:23;;;;;;;16.35;10.55;;;24.30;91.60;;;;;;5109481;28;20107;-68
2021/06/21 02:21:11;;;;;;;12.52;10.48;;;24.40;91.50;;;;;;5110732;28;20027;-68
2021/06/21 02:23:55;;;;;;;12.93;11.35;;;24.40;91.50;;;;;;5100666;27;20332;-68
2021/06/21 02:26:39;;;;;;;14.45;11.13;;;24.40;91.60;;;;;;5130921;27;20466;-69
2021/06/21 02:29:26;;;;;;;14.50;11.57;;;24.40;91.70;;;;;;5129085;27;20127;-68
2021/06/21 02:32:10;;;;;;;14.15;11.30;;;24.40;91.90;;;;;;5132716;27;20142;-68
2021/06/21 02:34:54;;;;;;;15.00;11.60;;;24.40;92.10;;;;;;5117261;27;20127;-69
2021/06/21 02:37:39;;;;;;;14.88;11.75;;;24.30;92.20;;;;;;5110936;28;20038;-67
2021/06/21 02:40:25;;;;;;;15.00;11.63;;;24.40;92.30;;;;;;5109252;28;20088;-68
2021/06/21 02:43:09;;;;;;;15.98;12.10;;;24.40;92.30;;;;;;5112095;28;20034;-68
2021/06/21 02:45:53;;;;;;;15.38;12.90;;;24.40;92.40;;;;;;5096645;28;20038;-69
2021/06/21 02:48:39;;;;;;;16.92;13.30;;;24.40;92.60;;;;;;5111423;27;20038;-69
2021/06/21 02:51:33;;;;;;;13.80;12.38;;;24.30;92.90;;;;;;5132158;27;20084;-69
2021/06/21 02:54:26;;;;;;;14.73;13.00;;;24.30;93.40;;;;;;5117008;27;20447;-69
2021/06/21 02:57:28;;;;;;;15.77;13.57;;;24.30;93.60;;;;;;5111827;28;20066;-69
2021/06/21 03:00:13;;;;;;;17.92;13.52;;;24.30;93.60;;;;;;5109576;28;20035;-69
2021/06/21 03:02:58;;;;;;;14.10;12.05;;;24.40;93.70;;;;;;5111157;28;20070;-68
2021/06/21 03:05:47;;;;;;;14.55;12.75;;;24.50;93.80;;;;;;5109488;28;20096;-69
2021/06/21 03:08:31;;;;;;;16.90;13.05;;;24.50;93.90;;;;;;5110196;28;20092;-69
2021/06/21 03:11:17;;;;;;;14.57;13.02;;;24.50;94.00;;;;;;5111414;28;20038;-71
2021/06/21 03:14:02;;;;;;;20.05;13.07;;;24.50;94.10;;;;;;5114541;28;20126;-68
2021/06/21 03:16:47;;;;;;;14.98;13.40;;;24.50;94.00;;;;;;5132411;28;20078;-68
2021/06/21 03:19:31;;;;;;;16.48;12.68;;;24.60;94.10;;;;;;5119910;28;20066;-69
2021/06/21 03:22:18;;;;;;;14.68;13.05;;;24.70;93.90;;;;;;5111661;28;20123;-69
2021/06/21 03:25:03;;;;;;;17.40;13.18;;;24.70;93.80;;;;;;5123282;28;20118;-69
2021/06/21 03:27:47;;;;;;;;;;;24.70;93.90;;;;;;5123074;28;20058;-69
2021/06/21 03:30:31;;;;;;;13.07;11.13;;;24.70;93.40;;;;;;5114029;27;20352;-62
2021/06/21 03:33:16;;;;;;;;;;;24.80;93.40;;;;;;5117873;27;20046;-60
2021/06/21 03:36:01;;;;;;;12.07;10.15;;;25.00;93.20;;;;;;5124573;27;19937;-61
2021/06/21 03:38:46;;;;;;;10.93;9.32;;;25.10;92.80;;;;;;5113888;28;20041;-64
2021/06/21 03:41:30;;;;;;;11.70;8.73;;;25.20;92.70;;;;;;5115570;28;20042;-60
2021/06/21 03:44:14;;;;;;;8.85;7.95;;;25.30;92.30;;;;;;5115572;27;20039;-62
2021/06/21 03:46:58;;;;;;;11.18;7.97;;;25.30;92.10;;;;;;5115463;28;20403;-60
2021/06/21 03:49:45;;;;;;;9.57;7.55;;;25.40;91.90;;;;;;5113818;28;20090;-61
2021/06/21 03:52:29;;;;;;;7.88;6.30;;;25.40;91.80;;;;;;5115312;28;20555;-63
2021/06/21 03:55:14;;;;;;;10.73;7.20;;;25.40;91.50;;;;;;5128446;27;20076;-64
2021/06/21 03:57:58;;;;;;;9.52;6.82;;;25.50;91.50;;;;;;5136026;27;20029;-62
2021/06/21 04:00:42;;;;;;;8.95;7.05;;;25.60;91.40;;;;;;5112895;28;20117;-63
2021/06/21 04:03:26;;;;;;;;;;;25.60;91.20;;;;;;5100007;27;20502;-61
2021/06/21 04:06:11;;;;;;;10.48;7.07;;;25.60;90.90;;;;;;5103212;27;19922;-61
2021/06/21 04:08:55;;;;;;;8.88;6.45;;;25.50;90.80;;;;;;5110467;27;20040;-61
2021/06/21 04:11:39;;;;;;;9.20;6.43;;;25.50;90.90;;;;;;5114352;28;20483;-63
2021/06/21 04:14:23;;;;;;;10.15;7.97;;;25.40;91.00;;;;;;5113140;28;20058;-61
2021/06/21 04:17:07;;;;;;;10.52;8.13;;;25.30;91.00;;;;;;5115049;28;20046;-63
2021/06/21 04:19:51;;;;;;;14.35;10.80;;;25.20;91.20;;;;;;5125135;27;20025;-63
2021/06/21 04:22:37;;;;;;;12.90;11.48;;;25.10;91.50;;;;;;5125322;27;20043;-62
2021/06/21 04:25:04;;;;;;;15.02;11.80;;;25.00;91.90;;;;;;5112333;28;20429;-65
2021/06/21 04:27:48;;;;;;;16.65;11.43;;;24.90;92.20;;;;;;5114935;28;20031;-63
2021/06/21 04:30:33;;;;;;;14.35;11.73;;;24.70;92.50;;;;;;5130204;27;20490;-61
2021/06/21 04:33:16;;;;;;;17.40;11.88;;;24.60;92.90;;;;;;5133496;27;20034;-65
2021/06/21 04:36:01;;;;;;;16.65;13.02;;;24.50;93.00;;;;;;5109171;27;20478;-63
2021/06/21 04:38:45;;;;;;;14.02;11.90;;;24.40;93.00;;;;;;5129652;27;20074;-65
2021/06/21 04:41:29;;;;;;;12.55;10.40;;;24.40;92.90;;;;;;5113734;28;20446;-63
2021/06/21 04:44:13;;;;;;;23.95;11.05;;;24.30;92.90;;;;;;5119538;27;20034;-61
2021/06/21 04:46:57;;;;;;;14.55;11.52;;;24.20;93.00;;;;;;5127270;27;20064;-63
2021/06/21 04:49:41;;;;;;;17.25;12.18;;;24.20;92.90;;;;;;5122368;27;20065;-63
2021/06/21 04:52:28;;;;;;;16.80;10.77;;;24.10;93.00;;;;;;5128513;27;20074;-63
2021/06/21 04:55:14;;;;;;;11.45;10.25;;;24.10;93.00;;;;;;5112754;28;20493;-66
2021/06/21 04:57:58;;;;;;;13.75;10.80;;;24.10;93.00;;;;;;5098623;28;20510;-67
2021/06/21 05:00:42;;;;;;;16.45;11.00;;;24.00;92.90;;;;;;5112947;28;20042;-66
2021/06/21 05:03:26;;;;;;;12.68;10.15;;;24.00;92.70;;;;;;5118946;27;20375;-67
2021/06/21 05:06:11;;;;;;;11.98;9.82;;;24.00;92.80;;;;;;5070685;28;20131;-67
2021/06/21 05:08:56;;;;;;;14.27;11.02;;;24.00;92.60;;;;;;5071894;28;20094;-66
2021/06/21 05:11:40;;;;;;;12.43;10.05;;;24.00;92.70;;;;;;5069277;28;20177;-67
2021/06/21 05:14:24;;;;;;;17.23;11.52;;;23.90;92.70;;;;;;5068313;28;20043;-67
2021/06/21 05:17:08;;;;;;;16.60;11.50;;;23.90;92.70;;;;;;5093441;28;20447;-67
2021/06/21 05:19:52;;;;;;;14.38;10.70;;;23.80;92.70;;;;;;5064650;28;20090;-67
2021/06/21 05:22:36;;;;;;;18.45;10.20;;;23.80;92.90;;;;;;5072898;28;20059;-67
2021/06/21 05:25:20;;;;;;;14.10;11.23;;;23.80;92.90;;;;;;5086492;28;20047;-66
2021/06/21 05:28:04;;;;;;;19.92;11.75;;;23.80;93.00;;;;;;5072842;28;20126;-66
2021/06/21 05:30:48;;;;;;;13.60;10.87;;;23.80;92.90;;;;;;5078565;28;20405;-67
2021/06/21 05:33:33;;;;;;;15.05;10.98;;;23.80;93.00;;;;;;5090149;28;20328;-66
2021/06/21 05:36:18;;;;;;;;;;;23.90;92.90;;;;;;5093575;28;20054;-66
2021/06/21 05:39:04;;;;;;;18.30;11.63;;;23.90;92.80;;;;;;5085419;28;20268;-66
2021/06/21 05:41:48;;;;;;;15.77;11.25;;;23.90;92.80;;;;;;5072529;28;20082;-66
2021/06/21 05:44:33;;;;;;;12.45;11.07;;;24.00;92.80;;;;;;5080278;28;20450;-66
2021/06/21 05:47:17;;;;;;;;;;;24.10;92.70;;;;;;5074320;28;20040;-66
2021/06/21 05:50:01;;;;;;;15.23;10.70;;;24.30;92.60;;;;;;5083203;28;19915;-66
2021/06/21 05:52:49;;;;;;;16.45;12.15;;;24.40;92.90;;;;;;5092693;28;20035;-66
2021/06/21 05:55:33;;;;;;;13.35;11.95;;;24.50;92.40;;;;;;5086572;28;20104;-67
2021/06/21 05:58:17;;;;;;;13.02;11.23;;;24.50;92.50;;;;;;5092236;28;20035;-67
2021/06/21 06:01:01;;;;;;;14.80;11.85;;;24.60;92.20;;;;;;5063730;28;20035;-67
2021/06/21 06:03:45;;;;;;;13.85;11.85;;;24.60;92.10;;;;;;5073540;28;20086;-67
2021/06/21 06:06:29;;;;;;;12.63;11.30;;;24.70;92.00;;;;;;5110654;27;20477;-67
2021/06/21 06:09:13;;;;;;;13.40;11.82;;;24.80;92.00;;;;;;5123842;27;20149;-67
2021/06/21 06:11:57;;;;;;;13.15;11.43;;;24.90;91.70;;;;;;5112627;28;20069;-67
2021/06/21 06:14:41;;;;;;;12.65;11.35;;;25.00;92.10;;;;;;5113819;27;20108;-66
2021/06/21 06:17:25;;;;;;;12.35;11.13;;;25.10;92.30;;;;;;5114805;27;20058;-67
2021/06/21 06:20:10;;;;;;;16.17;10.80;;;25.30;92.30;;;;;;5111215;28;20042;-67
2021/06/21 06:22:54;;;;;;;18.80;12.68;;;25.50;92.30;;;;;;5112126;28;20040;-67
2021/06/21 06:25:25;;;;;;;19.52;11.80;;;25.60;92.60;;;;;;5110354;27;20033;-67
2021/06/21 06:28:10;;;;;;;17.23;11.65;;;25.80;92.20;;;;;;5114379;27;20043;-67
2021/06/21 06:30:55;;;;;;;16.83;11.27;;;25.90;91.60;;;;;;5109792;28;20079;-67
2021/06/21 06:33:41;;;;;;;14.35;11.43;;;26.10;91.50;;;;;;5109489;27;20028;-67
2021/06/21 06:36:27;;;;;;;15.52;11.02;;;26.30;91.60;;;;;;5112874;27;20031;-67
2021/06/21 06:39:13;;;;;;;15.27;10.68;;;26.50;91.40;;;;;;5109942;27;20079;-67
2021/06/21 06:41:59;;;;;;;14.90;11.15;;;26.70;91.20;;;;;;5104495;27;20111;-67
2021/06/21 06:44:45;;;;;;;14.25;11.13;;;26.90;91.10;;;;;;5123623;27;20024;-67
2021/06/21 06:47:32;;;;;;;18.38;11.43;;;27.00;90.60;;;;;;5119070;27;20067;-67
2021/06/21 06:50:18;;;;;;;12.95;11.25;;;27.20;90.40;;;;;;5111180;27;20119;-67
2021/06/21 06:53:04;;;;;;;15.80;11.93;;;27.30;90.20;;;;;;5095714;28;20020;-68
2021/06/21 06:58:56;;;;;;;13.93;11.13;;;27.40;89.60;;;;;;5112516;27;20102;-68
2021/06/21 07:01:43;;;;;;;13.10;11.63;;;27.40;88.40;;;;;;5110653;28;20302;-68
2021/06/21 07:04:30;;;;;;;15.07;11.27;;;27.40;88.40;;;;;;5115689;27;20066;-68
2021/06/21 07:07:18;;;;;;;15.27;11.10;;;27.40;88.30;;;;;;5130162;27;20035;-68
2021/06/21 07:10:05;;;;;;;14.13;11.48;;;27.40;88.10;;;;;;5108506;28;20136;-68
2021/06/21 07:12:51;;;;;;;14.55;10.85;;;27.50;87.50;;;;;;5094702;28;20024;-68
2021/06/21 07:15:37;;;;;;;14.65;10.95;;;27.60;87.50;;;;;;5109226;28;20098;-68
2021/06/21 07:18:23;;;;;;;11.43;10.23;;;27.70;87.10;;;;;;5112425;28;20659;-68
2021/06/21 07:21:09;;;;;;;17.85;11.43;;;27.80;86.90;;;;;;5089291;28;20107;-68
2021/06/21 07:23:55;;;;;;;16.13;11.85;;;27.90;85.50;;;;;;5093279;28;20169;-68
2021/06/21 07:26:42;;;;;;;13.90;11.73;;;27.90;85.40;;;;;;5098563;28;20149;-68
2021/06/21 07:29:28;;;;;;;17.92;11.75;;;28.00;85.10;;;;;;5111920;28;20059;-68
2021/06/21 07:32:14;;;;;;;13.13;10.48;;;28.10;84.40;;;;;;5089651;28;20044;-68
2021/06/21 07:35:00;;;;;;;16.52;10.30;;;28.20;85.40;;;;;;5106275;28;20406;-68
2021/06/21 07:37:46;;;;;;;13.82;11.23;;;28.20;84.50;;;;;;5116408;28;20038;-68
2021/06/21 07:40:32;;;;;;;14.20;10.90;;;28.30;83.60;;;;;;5107368;28;20395;-68
2021/06/21 07:43:18;;;;;;;11.70;10.50;;;28.40;83.40;;;;;;5110233;28;20073;-68
2021/06/21 07:46:05;;;;;;;13.77;10.98;;;28.50;83.70;;;;;;5089535;28;20028;-68
2021/06/21 07:48:50;;;;;;;12.70;10.60;;;28.50;83.70;;;;;;5093085;28;20139;-67
2021/06/21 07:51:36;;;;;;;14.63;11.15;;;28.50;83.10;;;;;;5109271;28;20046;-67
2021/06/21 07:54:23;;;;;;;17.98;10.98;;;28.60;82.50;;;;;;5116762;28;20027;-67
2021/06/21 07:57:09;;;;;;;17.35;10.57;;;28.60;82.10;;;;;;5127198;28;20546;-68
2021/06/21 07:59:56;;;;;;;15.18;9.38;;;28.60;82.40;;;;;;5111910;28;20024;-67
2021/06/21 08:02:42;;;;;;;14.80;10.55;;;28.60;81.60;;;;;;5107072;28;20027;-67
2021/06/21 08:05:28;;;;;;;13.82;9.93;;;28.60;81.70;;;;;;5106611;28;20075;-67
2021/06/21 08:08:14;;;;;;;10.82;8.95;;;28.70;81.40;;;;;;5108433;28;20024;-68
2021/06/21 08:11:00;;;;;;;11.20;8.35;;;28.70;81.60;;;;;;5100390;28;20043;-68
2021/06/21 08:13:46;;;;;;;9.30;7.05;;;28.70;81.60;;;;;;5117055;27;20024;-68
2021/06/21 08:16:32;;;;;;;9.38;6.88;;;28.70;80.50;;;;;;5123794;27;20031;-69
2021/06/21 08:19:18;;;;;;;10.63;7.40;;;28.80;80.20;;;;;;5111776;28;20035;-68
2021/06/21 08:22:04;;;;;;;9.68;7.03;;;28.80;80.00;;;;;;5111385;28;20030;-67
2021/06/21 08:24:51;;;;;;;13.80;6.80;;;28.80;79.10;;;;;;5108977;27;20514;-69
2021/06/21 08:27:35;;;;;;;8.57;6.00;;;28.80;79.10;;;;;;5119202;27;20030;-68
2021/06/21 08:30:20;;;;;;;9.90;6.13;;;28.80;78.50;;;;;;5129213;27;20038;-68
2021/06/21 08:33:05;;;;;;;9.75;6.18;;;28.90;78.10;;;;;;5135114;27;20394;-67
2021/06/21 08:35:49;;;;;;;12.02;6.47;;;28.90;78.10;;;;;;5133886;27;20031;-68
2021/06/21 08:38:35;;;;;;;;;;;28.90;77.70;;;;;;5105164;27;20532;-68
2021/06/21 08:41:20;;;;;;;7.57;5.68;;;29.00;78.30;;;;;;5102143;27;19914;-70
2021/06/21 08:44:05;;;;;;;6.97;5.63;;;29.00;77.50;;;;;;5111422;27;20042;-68
2021/06/21 08:46:50;;;;;;;12.40;5.47;;;29.00;76.70;;;;;;5114100;27;20082;-67
2021/06/21 08:49:38;;;;;;;10.02;5.00;;;29.00;76.20;;;;;;5118392;27;20107;-67
2021/06/21 08:52:25;;;;;;;8.30;5.05;;;29.00;75.50;;;;;;5112413;27;20735;-66
2021/06/21 08:55:11;;;;;;;12.30;4.97;;;29.10;74.60;;;;;;5107012;27;20039;-66
2021/06/21 08:57:55;;;;;;;7.25;4.25;;;29.10;73.90;;;;;;5111033;27;20046;-66
2021/06/21 09:00:39;;;;;;;9.27;4.70;;;29.10;74.20;;;;;;5112428;27;20043;-66
2021/06/21 09:03:24;;;;;;;7.55;4.28;;;29.20;73.40;;;;;;5105973;27;20039;-66
2021/06/21 09:06:22;;;;;;;8.90;4.47;;;29.20;73.30;;;;;;5096334;27;20121;-65
2021/06/21 09:09:06;;;;;;;10.50;4.50;;;29.20;73.20;;;;;;5100028;27;20077;-67
2021/06/21 09:11:54;;;;;;;6.75;3.58;;;29.20;72.00;;;;;;5122292;27;20132;-67
2021/06/21 09:14:38;;;;;;;5.57;2.88;;;29.30;72.20;;;;;;5116405;27;20463;-67
2021/06/21 09:17:25;;;;;;;8.93;3.05;;;29.30;72.00;;;;;;5118953;27;20543;-65
2021/06/21 09:20:11;;;;;;;5.85;2.80;;;29.40;71.10;;;;;;5116539;27;20192;-66
2021/06/21 09:23:00;;;;;;;9.20;3.00;;;29.40;70.90;;;;;;5118119;27;20041;-66
2021/06/21 09:25:45;;;;;;;5.25;2.90;;;29.40;70.30;;;;;;5109619;28;20027;-66
2021/06/21 09:28:35;;;;;;;4.47;2.42;;;29.40;70.20;;;;;;5111472;27;20030;-66
2021/06/21 09:31:21;;;;;;;7.78;2.97;;;29.50;69.80;;;;;;5123256;27;20105;-66
2021/06/21 09:34:17;;;;;;;10.85;3.80;;;29.50;69.70;;;;;;5115398;27;20084;-66
2021/06/21 09:37:09;;;;;;;5.30;2.70;;;29.50;70.30;;;;;;5112984;27;20076;-66
2021/06/21 09:39:53;;;;;;;4.93;2.70;;;29.50;69.20;;;;;;5119279;27;20031;-67
2021/06/21 09:42:37;;;;;;;6.75;2.40;;;29.50;69.10;;;;;;5094630;27;20085;-68
2021/06/21 09:45:03;;;;;;;3.65;2.38;;;29.50;69.10;;;;;;5111571;28;20031;-68
2021/06/21 09:47:39;;;;;;;10.63;2.80;;;29.60;69.00;;;;;;5106764;28;20028;-68
2021/06/21 09:50:18;;;;;;;7.72;2.63;;;29.70;69.20;;;;;;5112433;28;20039;-66
2021/06/21 09:52:47;;;;;;;7.22;2.90;;;29.80;69.30;;;;;;5102277;28;20019;-67
2021/06/21 09:55:37;;;;;;;8.75;2.95;;;29.80;69.10;;;;;;5112214;28;20115;-67
2021/06/21 09:58:21;;;;;;;5.03;2.88;;;29.80;69.10;;;;;;5114816;27;20119;-67
2021/06/21 10:01:09;;;;;;;5.28;2.80;;;29.80;68.80;;;;;;5111537;28;20188;-67
2021/06/21 10:03:53;;;;;;;7.55;3.40;;;29.80;68.50;;;;;;5108837;28;20412;-67
2021/06/21 10:06:37;;;;;;;6.20;3.58;;;29.90;68.90;;;;;;5110041;28;20556;-68
2021/06/21 10:09:21;;;;;;;6.50;2.97;;;29.90;69.10;;;;;;5101656;28;20400;-67
2021/06/21 10:12:17;;;;;;;5.53;2.85;;;29.90;68.10;;;;;;5109852;28;20127;-67
2021/06/21 10:15:04;;;;;;;5.30;3.20;;;29.90;68.50;;;;;;5102549;28;20046;-66
2021/06/21 10:17:48;;;;;;;6.47;4.10;;;29.90;67.80;;;;;;5111985;28;20034;-67
2021/06/21 10:20:34;;;;;;;7.75;3.80;;;30.00;67.60;;;;;;5110476;28;20050;-66
2021/06/21 10:23:18;;;;;;;4.82;3.20;;;30.00;67.80;;;;;;5110378;28;20058;-66
2021/06/21 10:26:02;;;;;;;;;;;30.10;68.10;;;;;;5112942;28;20038;-67
2021/06/21 10:28:49;;;;;;;5.35;3.03;;;30.10;68.10;;;;;;5112396;28;19950;-67
2021/06/21 10:31:35;;;;;;;6.15;3.20;;;30.10;67.10;;;;;;5111995;28;20046;-66
2021/06/21 10:34:20;;;;;;;5.82;2.80;;;30.10;67.10;;;;;;5107951;28;20055;-67
2021/06/21 10:37:12;;;;;;;6.65;2.50;;;30.10;66.90;;;;;;5112278;28;20026;-67
2021/06/21 10:40:09;;;;;;;6.97;3.40;;;30.10;67.10;;;;;;5110203;28;20058;-66
2021/06/21 10:42:53;;;;;;;5.13;3.10;;;30.10;67.20;;;;;;5109056;27;20080;-66
2021/06/21 10:45:25;;;;;;;7.97;3.30;;;30.10;67.90;;;;;;5112899;27;20023;-66
2021/06/21 10:48:07;;;;;;;4.57;2.88;;;30.30;68.50;;;;;;5112353;27;20023;-66
2021/06/21 10:50:46;;;;;;;7.22;3.05;;;30.30;67.80;;;;;;5109321;28;20475;-67
2021/06/21 10:53:12;;;;;;;7.25;3.60;;;30.40;67.70;;;;;;5106649;28;20457;-66
2021/06/21 10:55:40;;;;;;;7.47;3.35;;;30.50;67.10;;;;;;5110644;28;20111;-66
2021/06/21 10:58:15;;;;;;;8.30;3.70;;;30.50;66.70;;;;;;5112079;28;20077;-67
2021/06/21 11:00:42;;;;;;;5.43;3.22;;;30.50;67.20;;;;;;5115352;27;20035;-68
2021/06/21 11:03:27;;;;;;;6.88;3.40;;;30.50;67.30;;;;;;5111469;28;20019;-66
2021/06/21 11:05:53;;;;;;;6.93;3.00;;;30.50;67.30;;;;;;5072990;28;20572;-67
2021/06/21 11:08:27;;;;;;;8.35;2.88;;;30.50;67.10;;;;;;5105775;28;20495;-66
2021/06/21 11:10:59;;;;;;;6.53;3.00;;;30.50;66.70;;;;;;5111542;28;20118;-67
2021/06/21 11:13:34;;;;;;;5.35;2.92;;;30.50;66.40;;;;;;5110996;28;20114;-67
2021/06/21 11:16:21;;;;;;;8.27;3.40;;;30.50;65.80;;;;;;5111594;28;20031;-67
2021/06/21 11:19:13;;;;;;;6.40;3.13;;;30.50;66.10;;;;;;5110770;28;20480;-67
2021/06/21 11:22:02;;;;;;;7.70;3.28;;;30.50;66.10;;;;;;5110273;28;20051;-67
2021/06/21 11:24:36;;;;;;;7.60;3.38;;;30.50;65.50;;;;;;5107008;28;20551;-67
2021/06/21 11:27:05;;;;;;;4.88;3.20;;;30.50;65.50;;;;;;5109519;28;20051;-67
2021/06/21 11:29:34;;;;;;;7.15;3.50;;;30.50;65.90;;;;;;5109110;28;20058;-67
2021/06/21 11:32:02;;;;;;;6.55;3.40;;;30.50;65.50;;;;;;5111666;28;20043;-67
2021/06/21 11:34:47;;;;;;;8.85;3.60;;;30.60;65.00;;;;;;5110676;28;20110;-67
2021/06/21 11:37:50;;;;;;;5.13;2.78;;;30.60;65.20;;;;;;5111765;28;20026;-66
2021/06/21 11:40:18;;;;;;;10.13;3.40;;;30.70;65.30;;;;;;5107698;28;20031;-67
2021/06/21 11:43:03;;;;;;;6.05;2.95;;;30.60;64.70;;;;;;5111599;28;20072;-66
2021/06/21 11:45:49;;;;;;;5.47;2.78;;;30.60;64.30;;;;;;5093549;28;20028;-66
2021/06/21 11:48:23;;;;;;;4.53;2.65;;;30.70;63.60;;;;;;5077989;28;20055;-66
2021/06/21 11:50:49;;;;;;;;;;;30.70;62.90;;;;;;5107332;28;20488;-67
2021/06/21 11:53:15;;;;;;;8.43;3.25;;;30.70;63.50;;;;;;5112572;28;19930;-66
2021/06/21 11:55:59;;;;;;;6.43;3.05;;;30.70;63.70;;;;;;5108259;28;20452;-67
2021/06/21 11:58:49;;;;;;;4.22;2.42;;;30.60;63.40;;;;;;5113186;28;20073;-67
2021/06/21 12:01:33;;;;;;;6.53;3.38;;;30.70;63.50;;;;;;5113690;28;20039;-67
2021/06/21 12:04:27;;;;;;;8.73;2.90;;;30.70;63.20;;;;;;5115085;28;20120;-67
2021/06/21 12:07:31;;;;;;;5.55;2.88;;;30.70;63.60;;;;;;5113026;27;20115;-67
2021/06/21 12:10:18;;;;;;;4.60;2.90;;;30.80;63.60;;;;;;5101528;28;20514;-67
2021/06/21 12:12:55;;;;;;;4.35;2.80;;;30.80;63.10;;;;;;5112755;28;20316;-66
2021/06/21 12:15:27;;;;;;;6.57;3.22;;;30.90;62.30;;;;;;5095579;28;20032;-66
2021/06/21 12:17:54;;;;;;;5.60;2.92;;;31.00;62.60;;;;;;5094958;28;20056;-67
2021/06/21 12:20:20;;;;;;;5.20;3.00;;;31.00;62.10;;;;;;5096713;28;20099;-67
2021/06/21 12:23:06;;;;;;;6.20;2.90;;;31.10;62.00;;;;;;5107817;28;20114;-66
2021/06/21 12:25:43;;;;;;;7.28;2.80;;;31.20;61.80;;;;;;5106964;28;20024;-66
2021/06/21 12:28:21;;;;;;;4.78;2.65;;;31.30;61.80;;;;;;5110039;28;20040;-67
2021/06/21 12:30:51;;;;;;;5.68;2.90;;;31.40;61.40;;;;;;5110790;28;20031;-67
2021/06/21 12:33:20;;;;;;;7.97;2.80;;;31.50;60.70;;;;;;5113007;28;20031;-67
2021/06/21 12:36:06;;;;;;;6.30;2.92;;;31.50;61.00;;;;;;5106993;28;20140;-67
2021/06/21 12:38:31;;;;;;;6.65;3.33;;;31.60;61.10;;;;;;5110170;28;20035;-67
2021/06/21 12:40:57;;;;;;;10.85;2.97;;;31.60;60.40;;;;;;5090039;28;20039;-67
2021/06/21 12:43:23;;;;;;;10.95;3.20;;;31.70;60.10;;;;;;5108631;28;20463;-67
2021/06/21 12:45:48;;;;;;;8.88;2.78;;;31.70;60.20;;;;;;5075903;28;20031;-65
2021/06/21 12:48:15;;;;;;;6.60;2.78;;;31.80;59.90;;;;;;5105387;28;20023;-67
2021/06/21 12:50:40;;;;;;;7.53;2.70;;;31.90;58.80;;;;;;5112511;28;20039;-65
2021/06/21 12:53:09;;;;;;;9.10;2.85;;;32.00;58.80;;;;;;5096991;28;20073;-66
2021/06/21 12:55:35;;;;;;;8.95;3.45;;;32.10;58.20;;;;;;5114023;28;20024;-66
2021/06/21 12:58:06;;;;;;;18.50;3.97;;;32.20;58.20;;;;;;5114373;28;20043;-66
2021/06/21 13:00:49;;;;;;;7.93;2.60;;;32.20;58.40;;;;;;5111713;28;20472;-68
2021/06/21 13:03:42;;;;;;;11.13;3.13;;;32.40;58.10;;;;;;5113688;28;20047;-67
2021/06/21 13:06:33;;;;;;;6.78;2.83;;;32.40;57.50;;;;;;5113762;28;20046;-68
2021/06/21 13:09:18;;;;;;;8.80;2.95;;;32.40;57.40;;;;;;5093937;28;20047;-67
2021/06/21 13:12:02;;;;;;;;;;;32.50;56.80;;;;;;5081905;28;20073;-67
2021/06/21 13:14:47;;;;;;;4.70;2.60;;;32.50;57.20;;;;;;5113121;28;19917;-67
2021/06/21 13:17:31;;;;;;;6.60;2.72;;;32.50;56.60;;;;;;5104941;27;20403;-67
2021/06/21 13:20:10;;;;;;;8.65;3.45;;;32.60;56.50;;;;;;5107538;28;20028;-67
2021/06/21 13:22:46;;;;;;;9.43;3.35;;;32.70;56.00;;;;;;5104586;28;20020;-66
2021/06/21 13:25:32;;;;;;;7.88;3.20;;;32.80;55.00;;;;;;5108281;28;20102;-66
2021/06/21 13:27:59;;;;;;;9.23;3.50;;;32.90;54.80;;;;;;5107279;28;20038;-67
2021/06/21 13:30:36;;;;;;;7.07;3.40;;;33.00;54.20;;;;;;5105403;28;20058;-67
2021/06/21 13:33:23;;;;;;;8.40;3.25;;;33.10;53.90;;;;;;5104208;28;20054;-67
2021/06/21 13:35:57;;;;;;;5.68;2.80;;;33.20;54.00;;;;;;5110649;28;20107;-66
2021/06/21 13:38:28;;;;;;;9.52;2.58;;;33.30;53.30;;;;;;5091504;28;20028;-67
2021/06/21 13:40:54;;;;;;;5.85;3.25;;;33.30;52.20;;;;;;5107664;28;20023;-67
2021/06/21 13:43:24;;;;;;;5.50;2.90;;;33.30;52.00;;;;;;5111595;28;20031;-67
2021/06/21 13:45:50;;;;;;;7.97;3.08;;;33.40;52.00;;;;;;5109861;28;20090;-67
2021/06/21 13:48:24;;;;;;;6.22;2.75;;;33.30;51.40;;;;;;5107750;28;20028;-66
2021/06/21 13:50:54;;;;;;;7.13;2.72;;;33.30;51.40;;;;;;5110523;28;20027;-67
2021/06/21 13:53:24;;;;;;;7.65;2.85;;;33.20;51.80;;;;;;5107589;28;20547;-66
2021/06/21 13:55:51;;;;;;;8.20;3.38;;;33.30;51.30;;;;;;5108855;28;20080;-66
2021/06/21 13:58:17;;;;;;;8.93;3.13;;;33.40;51.60;;;;;;5108633;28;20527;-66
2021/06/21 14:00:49;;;;;;;8.30;2.92;;;33.50;51.60;;;;;;5110993;28;20039;-66
2021/06/21 14:03:28;;;;;;;10.38;3.10;;;33.60;52.10;;;;;;5106366;28;20499;-66